Terminal Aerodrome Forecast
Issued by NWS Omaha/Valley, NE

Home | Current Version | Previous Version | Text Only | Print | Product List | Glossary On
Versions: 1 2 3 4 5 6 7 8 9 10 11 12 13 14 15 16 17 18
000
FTUS43 KOAX 291738
TAFOFK
TAF
KOFK 291738Z 2918/3018 04015G25KT P6SM OVC080
     FM292200 03015G25KT P6SM OVC040
     FM300400 02012G21KT P6SM -RA OVC025
     FM301000 01025G33KT 4SM -RA BR OVC010=

USA.gov is the U.S. government's official web portal to all federal, state and local government web resources and services.